createdAt,value
2019-05-25T00:04:13.294Z,14.53
2019-05-25T00:09:17.454Z,14.45
2019-05-25T00:14:21.503Z,14.38
2019-05-25T00:19:25.736Z,14.39
2019-05-25T00:24:29.897Z,14.29
2019-05-25T00:29:33.936Z,14.20
2019-05-25T00:34:38.186Z,14.41
2019-05-25T00:39:42.438Z,14.37
2019-05-25T00:44:46.565Z,14.23
2019-05-25T00:49:50.604Z,14.05
2019-05-25T00:54:55.033Z,13.97
2019-05-25T00:59:59.084Z,13.84
2019-05-25T01:05:03.424Z,13.65
2019-05-25T01:10:07.688Z,13.66
2019-05-25T01:15:13.222Z,13.67
2019-05-25T01:20:17.660Z,13.53
2019-05-25T01:25:22.607Z,13.46
2019-05-25T01:30:26.718Z,13.20
2019-05-25T01:35:30.754Z,13.03
2019-05-25T01:40:34.883Z,12.83
2019-05-25T01:45:39.301Z,12.69
2019-05-25T01:50:43.540Z,12.52
2019-05-25T01:55:47.876Z,12.32
2019-05-25T02:00:51.998Z,12.16
2019-05-25T02:05:56.206Z,12.09
2019-05-25T02:11:00.336Z,11.85
2019-05-25T02:16:04.580Z,11.68
2019-05-25T02:21:08.697Z,11.64
2019-05-25T02:26:13.087Z,11.55
2019-05-25T02:31:19.425Z,11.45
2019-05-25T02:36:23.518Z,11.45
2019-05-25T02:41:27.990Z,11.39
2019-05-25T02:46:32.068Z,11.50
2019-05-25T02:51:36.178Z,11.41
2019-05-25T02:56:40.411Z,11.22
2019-05-25T03:01:45.060Z,11.00
2019-05-25T03:06:50.833Z,10.93
2019-05-25T03:11:56.825Z,10.79
2019-05-25T03:17:00.889Z,10.71
2019-05-25T03:22:05.132Z,10.74
2019-05-25T03:27:09.718Z,10.68
2019-05-25T03:32:13.754Z,10.89
2019-05-25T03:37:17.884Z,11.08
2019-05-25T03:42:21.958Z,11.09
2019-05-25T03:47:26.038Z,11.28
2019-05-25T03:52:30.147Z,11.27
2019-05-25T03:57:34.189Z,11.47
2019-05-25T04:02:38.776Z,11.71
2019-05-25T04:07:43.327Z,11.99
2019-05-25T04:12:48.779Z,12.16
2019-05-25T04:17:52.926Z,12.26
2019-05-25T04:22:59.003Z,12.51
2019-05-25T04:28:03.240Z,12.58
2019-05-25T04:33:07.305Z,14.49
2019-05-25T04:38:11.481Z,14.38
2019-05-25T04:43:16.322Z,14.75
2019-05-25T04:48:20.481Z,16.24
2019-05-25T04:53:25.451Z,18.99
2019-05-25T04:58:30.319Z,19.72
2019-05-25T05:03:34.490Z,20.59
2019-05-25T05:08:38.597Z,23.84
2019-05-25T05:13:42.771Z,25.34
2019-05-25T05:18:47.062Z,24.30
2019-05-25T05:23:51.504Z,25.86
2019-05-25T05:28:55.708Z,24.64
2019-05-25T05:33:59.882Z,26.99
2019-05-25T05:39:06.955Z,27.10
2019-05-25T05:44:13.731Z,25.12
2019-05-25T05:49:18.875Z,25.28
2019-05-25T05:54:26.047Z,27.28
2019-05-25T05:59:30.327Z,24.34
2019-05-25T06:04:35.347Z,23.39
2019-05-25T06:09:39.522Z,24.53
2019-05-25T06:14:43.967Z,23.46
2019-05-25T06:19:47.967Z,22.87
2019-05-25T06:24:52.314Z,23.33
2019-05-25T06:29:56.723Z,19.71
2019-05-25T06:35:00.841Z,18.99
2019-05-25T06:40:05.718Z,19.12
2019-05-25T06:45:12.567Z,16.78
2019-05-25T06:50:17.236Z,16.48
2019-05-25T06:55:21.411Z,16.31
2019-05-25T07:00:27.712Z,16.73
2019-05-25T07:05:31.784Z,16.80
2019-05-25T07:10:36.165Z,16.01
2019-05-25T07:15:40.297Z,15.88
2019-05-25T07:20:44.366Z,15.60
2019-05-25T07:25:48.640Z,16.81
2019-05-25T07:30:52.818Z,17.14
2019-05-25T07:35:57.289Z,17.43
2019-05-25T07:41:01.678Z,17.35
2019-05-25T07:46:05.759Z,16.70
2019-05-25T07:51:09.989Z,16.60
2019-05-25T07:56:14.742Z,17.40
2019-05-25T08:01:24.531Z,17.29
2019-05-25T08:06:38.928Z,17.60
2019-05-25T08:11:53.828Z,17.15
2019-05-25T08:17:39.155Z,17.59
2019-05-25T08:23:46.273Z,18.80
2019-05-25T08:29:42.298Z,17.85
2019-05-25T08:35:39.414Z,17.06
2019-05-25T08:41:45.451Z,16.89
2019-05-25T08:47:35.620Z,16.45
2019-05-25T08:53:41.233Z,16.25
2019-05-25T08:59:31.560Z,16.18
2019-05-25T09:05:29.088Z,17.51
2019-05-25T09:11:28.520Z,17.07
2019-05-25T09:17:38.380Z,17.03
2019-05-25T09:23:40.818Z,17.85
2019-05-25T09:29:45.111Z,17.45
2019-05-25T09:35:37.948Z,16.83
2019-05-25T09:41:38.210Z,17.39
2019-05-25T09:47:33.935Z,17.17
2019-05-25T09:53:28.339Z,17.34
2019-05-25T09:59:19.834Z,18.35
2019-05-25T10:04:58.304Z,18.71
2019-05-25T10:10:56.312Z,18.89
2019-05-25T10:17:00.295Z,19.29
2019-05-25T10:22:54.506Z,18.42
2019-05-25T10:28:44.297Z,18.35
2019-05-25T10:34:40.045Z,20.45
2019-05-25T10:40:38.208Z,20.99
2019-05-25T10:45:48.702Z,19.32
2019-05-25T10:50:52.829Z,18.79
2019-05-25T10:55:56.873Z,19.44
2019-05-25T11:01:01.054Z,19.92
2019-05-25T11:06:05.216Z,18.69
2019-05-25T11:11:27.409Z,18.06
2019-05-25T11:16:31.488Z,17.94
2019-05-25T11:21:38.666Z,18.64
2019-05-25T11:26:43.137Z,18.34
2019-05-25T11:31:56.421Z,18.59
2019-05-25T11:37:16.141Z,18.88
2019-05-25T11:42:41.923Z,18.93
2019-05-25T11:48:23.184Z,18.58
2019-05-25T11:54:01.316Z,18.86
2019-05-25T11:59:26.538Z,19.27
2019-05-25T12:04:53.535Z,19.59
2019-05-25T12:10:19.615Z,20.21
2019-05-25T12:15:45.408Z,19.55
2019-05-25T12:21:12.183Z,18.88
2019-05-25T12:26:18.371Z,20.24
2019-05-25T12:31:22.482Z,20.48
2019-05-25T12:36:26.955Z,20.44
2019-05-25T12:41:30.962Z,19.60
2019-05-25T12:46:35.076Z,19.24
2019-05-25T12:51:44.605Z,19.39
2019-05-25T12:56:49.225Z,19.24
2019-05-25T13:01:54.915Z,20.20
2019-05-25T13:06:59.023Z,20.37
2019-05-25T13:12:03.345Z,19.76
2019-05-25T13:17:07.694Z,19.26
2019-05-25T13:22:11.910Z,18.58
2019-05-25T13:27:15.947Z,19.66
2019-05-25T13:32:20.058Z,20.47
2019-05-25T13:37:24.097Z,21.00
2019-05-25T13:42:28.827Z,21.00
2019-05-25T13:47:50.779Z,20.98
2019-05-25T13:52:54.979Z,19.84
2019-05-25T13:57:59.080Z,19.10
2019-05-25T14:03:03.163Z,19.22
2019-05-25T14:08:07.385Z,19.66
2019-05-25T14:13:11.612Z,20.18
2019-05-25T14:18:15.653Z,20.34
2019-05-25T14:23:19.814Z,19.32
2019-05-25T14:40:59.851Z,19.58
2019-05-25T14:46:04.131Z,19.12
2019-05-25T14:51:26.361Z,18.89
2019-05-25T14:56:30.579Z,18.76
2019-05-25T15:01:34.735Z,20.98
2019-05-25T15:06:38.995Z,19.56
2019-05-25T15:11:43.113Z,19.33
2019-05-25T15:16:47.637Z,18.96
2019-05-25T15:21:51.849Z,19.22
2019-05-25T15:26:55.973Z,19.85
2019-05-25T15:32:00.107Z,20.37
2019-05-25T15:37:04.357Z,20.04
2019-05-25T15:42:08.551Z,19.19
2019-05-25T15:47:12.563Z,17.76
2019-05-25T15:52:16.755Z,17.79
2019-05-25T15:57:20.766Z,18.90
2019-05-25T16:02:36.396Z,18.99
2019-05-25T16:07:31.609Z,18.08
2019-05-25T16:12:35.984Z,17.81
2019-05-25T16:17:58.194Z,17.10
2019-05-25T16:23:02.382Z,17.60
2019-05-25T16:28:12.398Z,17.38
2019-05-25T16:33:34.866Z,17.15
2019-05-25T16:38:38.941Z,16.87
2019-05-25T16:43:45.233Z,16.51
2019-05-25T16:48:49.757Z,16.40
2019-05-25T16:54:11.786Z,16.19
2019-05-25T16:59:16.004Z,16.33
2019-05-25T17:04:20.042Z,16.36
2019-05-25T17:09:32.535Z,16.04
2019-05-25T17:14:36.727Z,16.10
2019-05-25T17:19:40.863Z,16.01
2019-05-25T17:24:44.985Z,16.49
2019-05-25T17:29:49.372Z,16.26
2019-05-25T17:34:53.500Z,16.18
2019-05-25T17:39:58.410Z,15.72
2019-05-25T17:45:02.601Z,15.37
2019-05-25T17:50:07.118Z,14.98
2019-05-25T17:55:11.350Z,14.73
2019-05-25T18:00:20.595Z,14.95
2019-05-25T18:05:24.796Z,15.60
2019-05-25T18:10:29.157Z,15.76
2019-05-25T18:15:33.189Z,16.01
2019-05-25T18:20:39.049Z,15.48
2019-05-25T18:25:44.113Z,15.18
2019-05-25T18:30:52.253Z,14.92
2019-05-25T18:35:58.413Z,14.56
2019-05-25T18:41:06.998Z,14.20
2019-05-25T18:46:13.237Z,14.05
2019-05-25T18:51:21.153Z,13.96
2019-05-25T18:56:26.780Z,13.97
2019-05-25T19:01:32.433Z,13.70
2019-05-25T19:06:36.869Z,13.45
2019-05-25T19:11:41.167Z,13.12
2019-05-25T19:16:45.980Z,13.04
2019-05-25T19:21:51.948Z,13.00
2019-05-25T19:26:56.083Z,13.06
2019-05-25T19:32:00.336Z,13.06
2019-05-25T19:37:22.414Z,13.01
2019-05-25T19:42:27.082Z,13.02
2019-05-25T19:47:31.760Z,12.95
2019-05-25T19:52:36.050Z,12.94
2019-05-25T19:57:45.446Z,12.93
2019-05-25T20:02:50.907Z,12.68
2019-05-25T20:07:55.820Z,12.25
2019-05-25T20:13:00.450Z,11.91
2019-05-25T20:18:08.996Z,11.63
2019-05-25T20:23:13.613Z,11.43
2019-05-25T20:28:19.568Z,11.26
2019-05-25T20:33:41.649Z,11.06
2019-05-25T20:38:51.199Z,10.94
2019-05-25T20:44:22.005Z,10.75
2019-05-25T20:49:30.709Z,10.54
2019-05-25T20:54:36.421Z,10.33
2019-05-25T20:59:40.637Z,10.12
2019-05-25T21:04:44.692Z,10.08
2019-05-25T21:09:49.100Z,10.04
2019-05-25T21:14:53.213Z,9.91
2019-05-25T21:19:57.461Z,9.71
2019-05-25T21:25:05.714Z,9.68
2019-05-25T21:30:10.828Z,9.63
2019-05-25T21:35:14.604Z,9.62
2019-05-25T21:40:18.718Z,9.52
2019-05-25T21:45:22.860Z,9.39
2019-05-25T21:50:27.037Z,9.03
2019-05-25T21:55:31.481Z,9.03
2019-05-25T22:00:37.071Z,8.95
2019-05-25T22:05:44.539Z,8.93
2019-05-25T22:10:51.111Z,9.04
2019-05-25T22:15:57.211Z,9.10
2019-05-25T22:21:04.843Z,9.06
2019-05-25T22:26:13.992Z,8.97
2019-05-25T22:31:21.384Z,8.86
2019-05-25T22:36:39.711Z,8.91
2019-05-25T22:41:33.749Z,8.72
2019-05-25T22:46:37.868Z,8.61
2019-05-25T22:51:42.085Z,8.39
2019-05-25T22:56:46.199Z,8.17
2019-05-25T23:01:50.261Z,8.02
2019-05-25T23:06:58.120Z,7.88
2019-05-25T23:12:00.053Z,7.74
2019-05-25T23:17:06.615Z,7.60
2019-05-25T23:22:10.340Z,7.60
2019-05-25T23:27:16.248Z,7.43
2019-05-25T23:32:20.504Z,7.27
2019-05-25T23:37:24.629Z,7.13
2019-05-25T23:42:28.889Z,6.99
2019-05-25T23:47:33.051Z,6.86
2019-05-25T23:52:37.063Z,6.73
2019-05-25T23:57:41.112Z,6.64
